sensor_id;sensor_type;location;lat;lon;timestamp;temperature;humidity
19088;DHT22;9676;50.916;13.352;2023-05-10T00:01:34;15.10;41.10
19088;DHT22;9676;50.916;13.352;2023-05-10T00:04:24;15.10;40.90
19088;DHT22;9676;50.916;13.352;2023-05-10T00:07:15;15.00;40.60
19088;DHT22;9676;50.916;13.352;2023-05-10T00:10:05;15.00;40.90
19088;DHT22;9676;50.916;13.352;2023-05-10T00:12:55;15.00;40.80
19088;DHT22;9676;50.916;13.352;2023-05-10T00:15:46;14.90;41.10
19088;DHT22;9676;50.916;13.352;2023-05-10T00:18:35;14.90;41.30
19088;DHT22;9676;50.916;13.352;2023-05-10T00:21:25;14.90;41.10
19088;DHT22;9676;50.916;13.352;2023-05-10T00:24:15;14.90;40.90
19088;DHT22;9676;50.916;13.352;2023-05-10T00:27:05;14.80;40.80
19088;DHT22;9676;50.916;13.352;2023-05-10T00:29:54;14.80;41.00
19088;DHT22;9676;50.916;13.352;2023-05-10T00:32:45;14.80;41.00
19088;DHT22;9676;50.916;13.352;2023-05-10T00:35:35;14.80;41.00
19088;DHT22;9676;50.916;13.352;2023-05-10T00:38:25;14.70;41.00
19088;DHT22;9676;50.916;13.352;2023-05-10T00:41:14;14.70;40.90
19088;DHT22;9676;50.916;13.352;2023-05-10T00:44:06;14.70;40.80
19088;DHT22;9676;50.916;13.352;2023-05-10T00:46:56;14.70;40.70
19088;DHT22;9676;50.916;13.352;2023-05-10T00:49:46;14.70;40.80
19088;DHT22;9676;50.916;13.352;2023-05-10T00:52:36;14.70;41.20
19088;DHT22;9676;50.916;13.352;2023-05-10T00:55:26;14.60;40.80
19088;DHT22;9676;50.916;13.352;2023-05-10T00:58:15;14.60;40.90
19088;DHT22;9676;50.916;13.352;2023-05-10T01:01:05;14.60;40.90
19088;DHT22;9676;50.916;13.352;2023-05-10T01:03:55;14.50;40.90
19088;DHT22;9676;50.916;13.352;2023-05-10T01:06:46;14.50;41.10
19088;DHT22;9676;50.916;13.352;2023-05-10T01:09:35;14.50;41.00
19088;DHT22;9676;50.916;13.352;2023-05-10T01:12:25;14.50;41.10
19088;DHT22;9676;50.916;13.352;2023-05-10T01:15:15;14.50;41.20
19088;DHT22;9676;50.916;13.352;2023-05-10T01:18:05;14.40;41.10
19088;DHT22;9676;50.916;13.352;2023-05-10T01:21:04;14.40;41.20
19088;DHT22;9676;50.916;13.352;2023-05-10T01:24:31;14.40;41.50
19088;DHT22;9676;50.916;13.352;2023-05-10T01:31:34;14.40;41.80
19088;DHT22;9676;50.916;13.352;2023-05-10T01:34:47;14.40;41.40
19088;DHT22;9676;50.916;13.352;2023-05-10T01:37:44;14.30;41.20
19088;DHT22;9676;50.916;13.352;2023-05-10T01:40:41;14.30;41.30
19088;DHT22;9676;50.916;13.352;2023-05-10T01:43:41;14.30;41.30
19088;DHT22;9676;50.916;13.352;2023-05-10T01:46:36;14.20;41.30
19088;DHT22;9676;50.916;13.352;2023-05-10T01:49:32;14.20;41.40
19088;DHT22;9676;50.916;13.352;2023-05-10T01:52:28;14.20;41.70
19088;DHT22;9676;50.916;13.352;2023-05-10T01:55:22;14.20;41.60
19088;DHT22;9676;50.916;13.352;2023-05-10T01:58:17;14.20;41.50
19088;DHT22;9676;50.916;13.352;2023-05-10T02:01:10;14.20;41.60
19088;DHT22;9676;50.916;13.352;2023-05-10T02:04:00;14.20;41.70
19088;DHT22;9676;50.916;13.352;2023-05-10T02:06:53;14.10;41.70
19088;DHT22;9676;50.916;13.352;2023-05-10T02:09:45;14.10;41.80
19088;DHT22;9676;50.916;13.352;2023-05-10T02:12:36;14.10;41.90
19088;DHT22;9676;50.916;13.352;2023-05-10T02:15:28;14.10;41.90
19088;DHT22;9676;50.916;13.352;2023-05-10T02:18:19;14.10;42.40
19088;DHT22;9676;50.916;13.352;2023-05-10T02:21:09;14.10;42.20
19088;DHT22;9676;50.916;13.352;2023-05-10T02:24:01;14.00;42.20
19088;DHT22;9676;50.916;13.352;2023-05-10T02:26:53;14.00;42.40
19088;DHT22;9676;50.916;13.352;2023-05-10T02:29:44;14.00;42.90
19088;DHT22;9676;50.916;13.352;2023-05-10T02:32:36;14.00;42.50
19088;DHT22;9676;50.916;13.352;2023-05-10T02:35:27;14.00;42.40
19088;DHT22;9676;50.916;13.352;2023-05-10T02:38:19;14.00;42.60
19088;DHT22;9676;50.916;13.352;2023-05-10T02:41:12;14.00;42.70
19088;DHT22;9676;50.916;13.352;2023-05-10T02:44:02;14.00;43.20
19088;DHT22;9676;50.916;13.352;2023-05-10T02:46:53;13.90;43.10
19088;DHT22;9676;50.916;13.352;2023-05-10T02:49:43;13.90;43.00
19088;DHT22;9676;50.916;13.352;2023-05-10T02:52:39;13.90;43.80
19088;DHT22;9676;50.916;13.352;2023-05-10T02:55:35;13.90;43.20
19088;DHT22;9676;50.916;13.352;2023-05-10T02:58:27;13.90;43.20
19088;DHT22;9676;50.916;13.352;2023-05-10T03:01:16;13.80;43.30
19088;DHT22;9676;50.916;13.352;2023-05-10T03:04:06;13.90;43.30
19088;DHT22;9676;50.916;13.352;2023-05-10T03:06:55;13.90;43.30
19088;DHT22;9676;50.916;13.352;2023-05-10T03:09:45;13.90;43.50
19088;DHT22;9676;50.916;13.352;2023-05-10T03:12:46;13.90;43.40
19088;DHT22;9676;50.916;13.352;2023-05-10T03:15:50;13.90;43.90
19088;DHT22;9676;50.916;13.352;2023-05-10T03:18:47;13.80;43.50
19088;DHT22;9676;50.916;13.352;2023-05-10T03:21:42;13.80;43.80
19088;DHT22;9676;50.916;13.352;2023-05-10T03:24:34;13.80;43.50
19088;DHT22;9676;50.916;13.352;2023-05-10T03:27:26;13.80;43.30
19088;DHT22;9676;50.916;13.352;2023-05-10T03:30:16;13.80;43.40
19088;DHT22;9676;50.916;13.352;2023-05-10T03:33:08;13.80;43.40
19088;DHT22;9676;50.916;13.352;2023-05-10T03:36:01;13.80;43.30
19088;DHT22;9676;50.916;13.352;2023-05-10T03:38:50;13.80;43.30
19088;DHT22;9676;50.916;13.352;2023-05-10T03:41:40;13.80;43.30
19088;DHT22;9676;50.916;13.352;2023-05-10T03:44:29;13.80;43.20
19088;DHT22;9676;50.916;13.352;2023-05-10T03:47:18;13.80;43.30
19088;DHT22;9676;50.916;13.352;2023-05-10T03:50:09;13.80;43.30
19088;DHT22;9676;50.916;13.352;2023-05-10T03:52:59;13.80;43.40
19088;DHT22;9676;50.916;13.352;2023-05-10T03:55:49;13.70;43.40
19088;DHT22;9676;50.916;13.352;2023-05-10T03:58:38;13.70;43.40
19088;DHT22;9676;50.916;13.352;2023-05-10T04:01:28;13.80;43.50
19088;DHT22;9676;50.916;13.352;2023-05-10T04:04:17;13.80;43.80
19088;DHT22;9676;50.916;13.352;2023-05-10T04:07:11;13.80;44.00
19088;DHT22;9676;50.916;13.352;2023-05-10T04:10:00;13.90;44.50
19088;DHT22;9676;50.916;13.352;2023-05-10T04:12:50;13.90;44.40
19088;DHT22;9676;50.916;13.352;2023-05-10T04:15:39;14.00;44.70
19088;DHT22;9676;50.916;13.352;2023-05-10T04:18:29;14.10;45.00
19088;DHT22;9676;50.916;13.352;2023-05-10T04:21:18;14.30;45.30
19088;DHT22;9676;50.916;13.352;2023-05-10T04:24:09;14.40;45.40
19088;DHT22;9676;50.916;13.352;2023-05-10T04:27:00;14.70;45.80
19088;DHT22;9676;50.916;13.352;2023-05-10T04:29:49;15.00;46.30
19088;DHT22;9676;50.916;13.352;2023-05-10T04:32:38;15.30;46.60
19088;DHT22;9676;50.916;13.352;2023-05-10T04:35:28;15.80;47.00
19088;DHT22;9676;50.916;13.352;2023-05-10T04:38:18;16.20;47.20
19088;DHT22;9676;50.916;13.352;2023-05-10T04:41:09;16.70;47.20
19088;DHT22;9676;50.916;13.352;2023-05-10T04:43:59;17.20;47.20
19088;DHT22;9676;50.916;13.352;2023-05-10T04:46:48;17.70;47.10
19088;DHT22;9676;50.916;13.352;2023-05-10T04:49:38;18.20;47.20
19088;DHT22;9676;50.916;13.352;2023-05-10T04:52:27;18.70;47.10
19088;DHT22;9676;50.916;13.352;2023-05-10T04:55:16;19.10;46.80
19088;DHT22;9676;50.916;13.352;2023-05-10T04:58:07;19.50;46.70
19088;DHT22;9676;50.916;13.352;2023-05-10T05:00:56;20.00;46.70
19088;DHT22;9676;50.916;13.352;2023-05-10T05:03:46;20.50;46.60
19088;DHT22;9676;50.916;13.352;2023-05-10T05:06:35;20.90;46.60
19088;DHT22;9676;50.916;13.352;2023-05-10T05:09:25;21.30;46.40
19088;DHT22;9676;50.916;13.352;2023-05-10T05:12:15;21.80;46.30
19088;DHT22;9676;50.916;13.352;2023-05-10T05:15:07;22.20;46.10
19088;DHT22;9676;50.916;13.352;2023-05-10T05:17:57;22.70;45.90
19088;DHT22;9676;50.916;13.352;2023-05-10T05:20:47;23.10;45.80
19088;DHT22;9676;50.916;13.352;2023-05-10T05:23:36;23.50;45.60
19088;DHT22;9676;50.916;13.352;2023-05-10T05:26:26;23.90;45.30
19088;DHT22;9676;50.916;13.352;2023-05-10T05:29:15;24.20;45.00
19088;DHT22;9676;50.916;13.352;2023-05-10T05:32:06;24.40;44.70
19088;DHT22;9676;50.916;13.352;2023-05-10T05:34:56;24.70;43.80
19088;DHT22;9676;50.916;13.352;2023-05-10T05:37:45;24.90;44.00
19088;DHT22;9676;50.916;13.352;2023-05-10T05:40:35;25.00;43.60
19088;DHT22;9676;50.916;13.352;2023-05-10T05:43:24;25.20;43.60
19088;DHT22;9676;50.916;13.352;2023-05-10T05:46:14;25.50;43.50
19088;DHT22;9676;50.916;13.352;2023-05-10T05:49:04;25.60;42.90
19088;DHT22;9676;50.916;13.352;2023-05-10T05:51:54;25.80;42.10
19088;DHT22;9676;50.916;13.352;2023-05-10T05:54:43;25.90;42.00
19088;DHT22;9676;50.916;13.352;2023-05-10T05:57:32;26.00;41.90
19088;DHT22;9676;50.916;13.352;2023-05-10T06:00:22;26.00;41.70
19088;DHT22;9676;50.916;13.352;2023-05-10T06:03:11;26.10;41.70
19088;DHT22;9676;50.916;13.352;2023-05-10T06:06:02;26.20;41.40
19088;DHT22;9676;50.916;13.352;2023-05-10T06:08:52;26.30;41.50
19088;DHT22;9676;50.916;13.352;2023-05-10T06:11:41;26.50;41.90
19088;DHT22;9676;50.916;13.352;2023-05-10T06:14:30;26.70;41.50
19088;DHT22;9676;50.916;13.352;2023-05-10T06:17:20;27.00;41.40
19088;DHT22;9676;50.916;13.352;2023-05-10T06:20:11;27.30;41.50
19088;DHT22;9676;50.916;13.352;2023-05-10T06:23:02;27.60;41.70
19088;DHT22;9676;50.916;13.352;2023-05-10T06:25:51;27.90;41.70
19088;DHT22;9676;50.916;13.352;2023-05-10T06:28:41;28.20;41.90
19088;DHT22;9676;50.916;13.352;2023-05-10T06:31:30;28.60;41.50
19088;DHT22;9676;50.916;13.352;2023-05-10T06:34:19;28.90;40.80
19088;DHT22;9676;50.916;13.352;2023-05-10T06:37:09;29.20;40.60
19088;DHT22;9676;50.916;13.352;2023-05-10T06:39:59;29.50;40.60
19088;DHT22;9676;50.916;13.352;2023-05-10T06:42:49;29.80;40.00
19088;DHT22;9676;50.916;13.352;2023-05-10T06:45:39;29.90;39.00
19088;DHT22;9676;50.916;13.352;2023-05-10T06:48:28;30.00;39.00
19088;DHT22;9676;50.916;13.352;2023-05-10T06:51:18;30.00;38.40
19088;DHT22;9676;50.916;13.352;2023-05-10T06:54:08;30.20;38.60
19088;DHT22;9676;50.916;13.352;2023-05-10T06:56:59;30.20;38.20
19088;DHT22;9676;50.916;13.352;2023-05-10T06:59:53;30.20;37.80
19088;DHT22;9676;50.916;13.352;2023-05-10T07:02:44;30.20;37.90
19088;DHT22;9676;50.916;13.352;2023-05-10T07:05:33;30.30;38.20
19088;DHT22;9676;50.916;13.352;2023-05-10T07:08:23;30.50;38.40
19088;DHT22;9676;50.916;13.352;2023-05-10T07:11:12;30.80;38.50
19088;DHT22;9676;50.916;13.352;2023-05-10T07:14:03;31.10;38.20
19088;DHT22;9676;50.916;13.352;2023-05-10T07:16:52;31.40;37.80
19088;DHT22;9676;50.916;13.352;2023-05-10T07:19:42;31.60;37.70
19088;DHT22;9676;50.916;13.352;2023-05-10T07:22:31;31.80;37.60
19088;DHT22;9676;50.916;13.352;2023-05-10T07:25:21;32.00;37.40
19088;DHT22;9676;50.916;13.352;2023-05-10T07:28:10;32.20;37.30
19088;DHT22;9676;50.916;13.352;2023-05-10T07:31:01;32.40;37.00
19088;DHT22;9676;50.916;13.352;2023-05-10T07:33:50;32.50;36.20
19088;DHT22;9676;50.916;13.352;2023-05-10T07:36:40;32.50;36.00
19088;DHT22;9676;50.916;13.352;2023-05-10T07:39:29;32.50;36.00
19088;DHT22;9676;50.916;13.352;2023-05-10T07:42:21;32.60;36.00
19088;DHT22;9676;50.916;13.352;2023-05-10T07:45:11;32.60;36.10
19088;DHT22;9676;50.916;13.352;2023-05-10T07:48:02;32.70;36.20
19088;DHT22;9676;50.916;13.352;2023-05-10T07:50:51;32.80;35.80
19088;DHT22;9676;50.916;13.352;2023-05-10T07:53:41;33.00;35.70
19088;DHT22;9676;50.916;13.352;2023-05-10T07:56:31;33.20;35.60
19088;DHT22;9676;50.916;13.352;2023-05-10T07:59:21;33.30;35.60
19088;DHT22;9676;50.916;13.352;2023-05-10T08:02:10;33.50;35.90
19088;DHT22;9676;50.916;13.352;2023-05-10T08:05:01;33.80;36.10
19088;DHT22;9676;50.916;13.352;2023-05-10T08:07:50;34.20;35.80
19088;DHT22;9676;50.916;13.352;2023-05-10T08:10:40;34.60;35.70
19088;DHT22;9676;50.916;13.352;2023-05-10T08:13:29;35.00;35.00
19088;DHT22;9676;50.916;13.352;2023-05-10T08:16:19;35.20;34.60
19088;DHT22;9676;50.916;13.352;2023-05-10T08:19:09;35.30;34.50
19088;DHT22;9676;50.916;13.352;2023-05-10T08:21:59;35.40;34.50
19088;DHT22;9676;50.916;13.352;2023-05-10T08:24:49;35.70;34.20
19088;DHT22;9676;50.916;13.352;2023-05-10T08:27:38;35.80;33.90
19088;DHT22;9676;50.916;13.352;2023-05-10T08:30:28;35.90;33.60
19088;DHT22;9676;50.916;13.352;2023-05-10T08:33:18;36.10;33.50
19088;DHT22;9676;50.916;13.352;2023-05-10T08:36:07;36.20;33.30
19088;DHT22;9676;50.916;13.352;2023-05-10T08:38:58;36.30;33.40
19088;DHT22;9676;50.916;13.352;2023-05-10T08:41:48;36.50;33.20
19088;DHT22;9676;50.916;13.352;2023-05-10T08:44:40;36.60;33.50
19088;DHT22;9676;50.916;13.352;2023-05-10T08:47:30;36.90;33.60
19088;DHT22;9676;50.916;13.352;2023-05-10T08:50:20;37.20;33.50
19088;DHT22;9676;50.916;13.352;2023-05-10T08:53:12;37.60;33.40
19088;DHT22;9676;50.916;13.352;2023-05-10T08:56:04;38.00;33.20
19088;DHT22;9676;50.916;13.352;2023-05-10T08:58:53;38.20;32.50
19088;DHT22;9676;50.916;13.352;2023-05-10T09:01:44;38.30;32.00
19088;DHT22;9676;50.916;13.352;2023-05-10T09:04:37;38.40;32.00
19088;DHT22;9676;50.916;13.352;2023-05-10T09:07:27;38.50;31.80
19088;DHT22;9676;50.916;13.352;2023-05-10T09:10:16;38.60;31.90
19088;DHT22;9676;50.916;13.352;2023-05-10T09:13:08;38.60;31.50
19088;DHT22;9676;50.916;13.352;2023-05-10T09:16:00;38.60;31.10
19088;DHT22;9676;50.916;13.352;2023-05-10T09:19:08;38.50;31.30
19088;DHT22;9676;50.916;13.352;2023-05-10T09:21:57;38.50;31.10
19088;DHT22;9676;50.916;13.352;2023-05-10T09:24:47;38.50;31.00
19088;DHT22;9676;50.916;13.352;2023-05-10T09:27:38;38.70;31.00
19088;DHT22;9676;50.916;13.352;2023-05-10T09:30:30;38.80;30.40
19088;DHT22;9676;50.916;13.352;2023-05-10T09:33:20;38.70;30.00
19088;DHT22;9676;50.916;13.352;2023-05-10T09:36:09;38.50;29.80
19088;DHT22;9676;50.916;13.352;2023-05-10T09:38:59;38.30;29.50
19088;DHT22;9676;50.916;13.352;2023-05-10T09:41:49;38.20;29.60
19088;DHT22;9676;50.916;13.352;2023-05-10T09:44:38;38.00;29.50
19088;DHT22;9676;50.916;13.352;2023-05-10T09:47:31;37.90;29.50
19088;DHT22;9676;50.916;13.352;2023-05-10T09:50:23;37.70;29.40
19088;DHT22;9676;50.916;13.352;2023-05-10T09:53:14;37.40;29.30
19088;DHT22;9676;50.916;13.352;2023-05-10T09:56:04;37.20;29.10
19088;DHT22;9676;50.916;13.352;2023-05-10T09:59:02;36.90;29.10
19088;DHT22;9676;50.916;13.352;2023-05-10T10:01:52;36.60;28.80
19088;DHT22;9676;50.916;13.352;2023-05-10T10:04:43;36.30;29.20
19088;DHT22;9676;50.916;13.352;2023-05-10T10:07:33;36.10;29.30
19088;DHT22;9676;50.916;13.352;2023-05-10T10:10:23;35.90;29.50
19088;DHT22;9676;50.916;13.352;2023-05-10T10:13:13;35.80;29.60
19088;DHT22;9676;50.916;13.352;2023-05-10T10:16:03;35.70;29.60
19088;DHT22;9676;50.916;13.352;2023-05-10T10:18:53;35.50;29.50
19088;DHT22;9676;50.916;13.352;2023-05-10T10:21:44;35.30;29.40
19088;DHT22;9676;50.916;13.352;2023-05-10T10:24:34;35.20;29.40
19088;DHT22;9676;50.916;13.352;2023-05-10T10:27:26;35.00;29.40
19088;DHT22;9676;50.916;13.352;2023-05-10T10:30:25;34.80;29.40
19088;DHT22;9676;50.916;13.352;2023-05-10T10:33:33;34.60;29.10
19088;DHT22;9676;50.916;13.352;2023-05-10T10:36:28;34.40;29.10
19088;DHT22;9676;50.916;13.352;2023-05-10T10:39:20;34.10;29.30
19088;DHT22;9676;50.916;13.352;2023-05-10T10:42:09;34.00;29.50
19088;DHT22;9676;50.916;13.352;2023-05-10T10:45:12;34.00;29.80
19088;DHT22;9676;50.916;13.352;2023-05-10T10:48:22;34.00;29.80
19088;DHT22;9676;50.916;13.352;2023-05-10T10:51:13;34.00;29.90
19088;DHT22;9676;50.916;13.352;2023-05-10T10:54:09;34.00;30.10
19088;DHT22;9676;50.916;13.352;2023-05-10T10:57:13;34.10;29.90
19088;DHT22;9676;50.916;13.352;2023-05-10T11:00:23;34.20;29.90
19088;DHT22;9676;50.916;13.352;2023-05-10T11:07:17;34.20;29.50
19088;DHT22;9676;50.916;13.352;2023-05-10T11:10:08;34.10;29.20
19088;DHT22;9676;50.916;13.352;2023-05-10T11:13:01;33.80;29.00
19088;DHT22;9676;50.916;13.352;2023-05-10T11:15:51;33.60;29.00
19088;DHT22;9676;50.916;13.352;2023-05-10T11:18:40;33.30;29.10
19088;DHT22;9676;50.916;13.352;2023-05-10T11:21:32;33.00;29.10
19088;DHT22;9676;50.916;13.352;2023-05-10T11:24:23;32.70;29.10
19088;DHT22;9676;50.916;13.352;2023-05-10T11:27:16;32.40;29.20
19088;DHT22;9676;50.916;13.352;2023-05-10T11:30:10;32.10;29.20
19088;DHT22;9676;50.916;13.352;2023-05-10T11:33:00;31.90;29.20
19088;DHT22;9676;50.916;13.352;2023-05-10T11:35:50;31.60;29.10
19088;DHT22;9676;50.916;13.352;2023-05-10T11:38:39;31.40;29.20
19088;DHT22;9676;50.916;13.352;2023-05-10T11:41:30;31.10;29.30
19088;DHT22;9676;50.916;13.352;2023-05-10T11:44:20;30.90;29.50
19088;DHT22;9676;50.916;13.352;2023-05-10T11:47:12;30.70;29.50
19088;DHT22;9676;50.916;13.352;2023-05-10T11:50:02;30.50;29.60
19088;DHT22;9676;50.916;13.352;2023-05-10T11:52:51;30.40;29.80
19088;DHT22;9676;50.916;13.352;2023-05-10T11:55:41;30.10;29.80
19088;DHT22;9676;50.916;13.352;2023-05-10T11:58:31;30.00;29.90
19088;DHT22;9676;50.916;13.352;2023-05-10T12:01:21;29.90;30.00
19088;DHT22;9676;50.916;13.352;2023-05-10T12:04:13;29.90;30.30
19088;DHT22;9676;50.916;13.352;2023-05-10T12:07:03;29.80;30.20
19088;DHT22;9676;50.916;13.352;2023-05-10T12:10:07;29.70;30.20
19088;DHT22;9676;50.916;13.352;2023-05-10T12:12:58;29.60;30.40
19088;DHT22;9676;50.916;13.352;2023-05-10T12:15:47;29.40;30.30
19088;DHT22;9676;50.916;13.352;2023-05-10T12:18:39;29.20;30.30
19088;DHT22;9676;50.916;13.352;2023-05-10T12:21:30;29.00;30.60
19088;DHT22;9676;50.916;13.352;2023-05-10T12:24:20;28.80;30.80
19088;DHT22;9676;50.916;13.352;2023-05-10T12:27:09;28.60;30.90
19088;DHT22;9676;50.916;13.352;2023-05-10T12:30:00;28.50;31.00
19088;DHT22;9676;50.916;13.352;2023-05-10T12:32:50;28.40;31.30
19088;DHT22;9676;50.916;13.352;2023-05-10T12:35:47;28.30;31.40
19088;DHT22;9676;50.916;13.352;2023-05-10T12:38:40;28.20;32.30
19088;DHT22;9676;50.916;13.352;2023-05-10T12:41:31;28.10;31.90
19088;DHT22;9676;50.916;13.352;2023-05-10T12:44:20;28.00;32.20
19088;DHT22;9676;50.916;13.352;2023-05-10T12:47:10;28.10;32.70
19088;DHT22;9676;50.916;13.352;2023-05-10T12:50:00;28.10;32.80
19088;DHT22;9676;50.916;13.352;2023-05-10T12:52:51;28.20;32.90
19088;DHT22;9676;50.916;13.352;2023-05-10T12:55:41;28.30;32.90
19088;DHT22;9676;50.916;13.352;2023-05-10T12:58:31;28.40;32.90
19088;DHT22;9676;50.916;13.352;2023-05-10T13:01:23;28.50;32.90
19088;DHT22;9676;50.916;13.352;2023-05-10T13:04:12;28.40;32.90
19088;DHT22;9676;50.916;13.352;2023-05-10T13:07:02;28.50;33.00
19088;DHT22;9676;50.916;13.352;2023-05-10T13:09:51;28.40;32.80
19088;DHT22;9676;50.916;13.352;2023-05-10T13:12:42;28.40;32.90
19088;DHT22;9676;50.916;13.352;2023-05-10T13:15:31;28.30;33.00
19088;DHT22;9676;50.916;13.352;2023-05-10T13:18:21;28.30;33.20
19088;DHT22;9676;50.916;13.352;2023-05-10T13:21:10;28.20;33.40
19088;DHT22;9676;50.916;13.352;2023-05-10T13:23:59;28.20;33.60
19088;DHT22;9676;50.916;13.352;2023-05-10T13:26:49;28.10;33.80
19088;DHT22;9676;50.916;13.352;2023-05-10T13:29:40;28.20;34.00
19088;DHT22;9676;50.916;13.352;2023-05-10T13:32:31;28.20;34.20
19088;DHT22;9676;50.916;13.352;2023-05-10T13:35:22;28.10;34.20
19088;DHT22;9676;50.916;13.352;2023-05-10T13:38:12;28.20;34.40
19088;DHT22;9676;50.916;13.352;2023-05-10T13:41:02;28.20;34.40
19088;DHT22;9676;50.916;13.352;2023-05-10T13:43:51;28.30;34.40
19088;DHT22;9676;50.916;13.352;2023-05-10T13:46:42;28.30;34.30
19088;DHT22;9676;50.916;13.352;2023-05-10T13:49:32;28.20;34.30
19088;DHT22;9676;50.916;13.352;2023-05-10T13:52:21;28.20;34.20
19088;DHT22;9676;50.916;13.352;2023-05-10T13:55:12;28.10;34.20
19088;DHT22;9676;50.916;13.352;2023-05-10T13:58:17;28.00;34.10
19088;DHT22;9676;50.916;13.352;2023-05-10T14:01:07;27.90;34.00
19088;DHT22;9676;50.916;13.352;2023-05-10T14:03:57;27.80;34.10
19088;DHT22;9676;50.916;13.352;2023-05-10T14:06:47;27.70;34.30
19088;DHT22;9676;50.916;13.352;2023-05-10T14:09:36;27.60;34.20
19088;DHT22;9676;50.916;13.352;2023-05-10T14:12:26;27.40;34.20
19088;DHT22;9676;50.916;13.352;2023-05-10T14:15:15;27.30;34.30
19088;DHT22;9676;50.916;13.352;2023-05-10T14:18:05;27.20;34.50
19088;DHT22;9676;50.916;13.352;2023-05-10T14:20:56;27.10;34.70
19088;DHT22;9676;50.916;13.352;2023-05-10T14:23:45;27.10;34.90
19088;DHT22;9676;50.916;13.352;2023-05-10T14:26:35;27.00;34.90
19088;DHT22;9676;50.916;13.352;2023-05-10T14:29:24;26.90;34.90
19088;DHT22;9676;50.916;13.352;2023-05-10T14:32:13;26.90;34.90
19088;DHT22;9676;50.916;13.352;2023-05-10T14:35:04;26.80;34.80
19088;DHT22;9676;50.916;13.352;2023-05-10T14:37:58;26.70;34.90
19088;DHT22;9676;50.916;13.352;2023-05-10T14:40:48;26.60;35.00
19088;DHT22;9676;50.916;13.352;2023-05-10T14:43:37;26.50;35.10
19088;DHT22;9676;50.916;13.352;2023-05-10T14:46:27;26.30;35.10
19088;DHT22;9676;50.916;13.352;2023-05-10T14:49:17;26.20;35.20
19088;DHT22;9676;50.916;13.352;2023-05-10T14:52:07;26.10;35.30
19088;DHT22;9676;50.916;13.352;2023-05-10T14:54:57;26.10;35.50
19088;DHT22;9676;50.916;13.352;2023-05-10T14:57:49;25.90;35.60
19088;DHT22;9676;50.916;13.352;2023-05-10T15:00:38;25.90;35.70
19088;DHT22;9676;50.916;13.352;2023-05-10T15:03:28;25.70;35.80
19088;DHT22;9676;50.916;13.352;2023-05-10T15:06:23;25.70;35.90
19088;DHT22;9676;50.916;13.352;2023-05-10T15:09:13;25.60;36.70
19088;DHT22;9676;50.916;13.352;2023-05-10T15:12:04;25.50;36.10
19088;DHT22;9676;50.916;13.352;2023-05-10T15:14:56;25.40;36.30
19088;DHT22;9676;50.916;13.352;2023-05-10T15:17:45;25.30;36.30
19088;DHT22;9676;50.916;13.352;2023-05-10T15:20:35;25.20;36.50
19088;DHT22;9676;50.916;13.352;2023-05-10T15:23:24;25.10;36.60
19088;DHT22;9676;50.916;13.352;2023-05-10T15:26:14;25.10;36.80
19088;DHT22;9676;50.916;13.352;2023-05-10T15:29:05;25.00;36.80
19088;DHT22;9676;50.916;13.352;2023-05-10T15:31:54;25.00;37.00
19088;DHT22;9676;50.916;13.352;2023-05-10T15:34:44;24.90;37.00
19088;DHT22;9676;50.916;13.352;2023-05-10T15:37:33;24.90;37.10
19088;DHT22;9676;50.916;13.352;2023-05-10T15:40:23;24.80;37.00
19088;DHT22;9676;50.916;13.352;2023-05-10T15:43:12;24.80;37.10
19088;DHT22;9676;50.916;13.352;2023-05-10T15:46:04;24.70;37.10
19088;DHT22;9676;50.916;13.352;2023-05-10T15:48:54;24.60;37.20
19088;DHT22;9676;50.916;13.352;2023-05-10T15:51:43;24.60;37.30
19088;DHT22;9676;50.916;13.352;2023-05-10T15:54:33;24.60;37.50
19088;DHT22;9676;50.916;13.352;2023-05-10T15:57:22;24.50;37.60
19088;DHT22;9676;50.916;13.352;2023-05-10T16:00:13;24.50;37.80
19088;DHT22;9676;50.916;13.352;2023-05-10T16:03:04;24.50;37.90
19088;DHT22;9676;50.916;13.352;2023-05-10T16:05:53;24.50;37.90
19088;DHT22;9676;50.916;13.352;2023-05-10T16:08:43;24.40;37.80
19088;DHT22;9676;50.916;13.352;2023-05-10T16:11:32;24.40;37.80
19088;DHT22;9676;50.916;13.352;2023-05-10T16:14:21;24.40;37.80
19088;DHT22;9676;50.916;13.352;2023-05-10T16:17:11;24.40;37.80
19088;DHT22;9676;50.916;13.352;2023-05-10T16:20:04;24.30;37.80
19088;DHT22;9676;50.916;13.352;2023-05-10T16:22:55;24.20;37.90
19088;DHT22;9676;50.916;13.352;2023-05-10T16:25:44;24.20;37.90
19088;DHT22;9676;50.916;13.352;2023-05-10T16:28:34;24.10;37.80
19088;DHT22;9676;50.916;13.352;2023-05-10T16:31:24;24.00;37.90
19088;DHT22;9676;50.916;13.352;2023-05-10T16:34:13;23.90;37.90
19088;DHT22;9676;50.916;13.352;2023-05-10T16:37:04;23.80;38.00
19088;DHT22;9676;50.916;13.352;2023-05-10T16:39:54;23.70;38.10
19088;DHT22;9676;50.916;13.352;2023-05-10T16:42:44;23.60;38.10
19088;DHT22;9676;50.916;13.352;2023-05-10T16:45:33;23.50;38.20
19088;DHT22;9676;50.916;13.352;2023-05-10T16:48:23;23.40;38.30
19088;DHT22;9676;50.916;13.352;2023-05-10T16:51:12;23.30;38.40
19088;DHT22;9676;50.916;13.352;2023-05-10T16:54:03;23.20;38.50
19088;DHT22;9676;50.916;13.352;2023-05-10T16:56:52;23.20;38.80
19088;DHT22;9676;50.916;13.352;2023-05-10T16:59:42;23.10;38.80
19088;DHT22;9676;50.916;13.352;2023-05-10T17:02:31;23.00;38.90
19088;DHT22;9676;50.916;13.352;2023-05-10T17:05:21;22.90;39.00
19088;DHT22;9676;50.916;13.352;2023-05-10T17:08:10;22.90;39.10
19088;DHT22;9676;50.916;13.352;2023-05-10T17:11:02;22.80;39.10
19088;DHT22;9676;50.916;13.352;2023-05-10T17:13:51;22.70;39.30
19088;DHT22;9676;50.916;13.352;2023-05-10T17:16:41;22.70;39.30
19088;DHT22;9676;50.916;13.352;2023-05-10T17:19:30;22.60;39.40
19088;DHT22;9676;50.916;13.352;2023-05-10T17:22:20;22.60;39.50
19088;DHT22;9676;50.916;13.352;2023-05-10T17:25:09;22.60;39.70
19088;DHT22;9676;50.916;13.352;2023-05-10T17:28:00;22.50;39.70
19088;DHT22;9676;50.916;13.352;2023-05-10T17:30:55;22.50;39.90
19088;DHT22;9676;50.916;13.352;2023-05-10T17:33:44;22.50;40.10
19088;DHT22;9676;50.916;13.352;2023-05-10T17:36:34;22.40;39.90
19088;DHT22;9676;50.916;13.352;2023-05-10T17:39:24;22.40;40.00
19088;DHT22;9676;50.916;13.352;2023-05-10T17:42:14;22.30;39.90
19088;DHT22;9676;50.916;13.352;2023-05-10T17:45:07;22.30;40.00
19088;DHT22;9676;50.916;13.352;2023-05-10T17:47:58;22.20;40.10
19088;DHT22;9676;50.916;13.352;2023-05-10T17:50:49;22.20;40.10
19088;DHT22;9676;50.916;13.352;2023-05-10T17:53:40;22.10;40.20
19088;DHT22;9676;50.916;13.352;2023-05-10T17:56:30;22.10;40.20
19088;DHT22;9676;50.916;13.352;2023-05-10T17:59:19;22.10;40.30
19088;DHT22;9676;50.916;13.352;2023-05-10T18:02:10;22.00;40.30
19088;DHT22;9676;50.916;13.352;2023-05-10T18:05:00;21.90;40.40
19088;DHT22;9676;50.916;13.352;2023-05-10T18:07:49;21.80;40.30